Time;durP1;ratioP1;P1;durP2;ratioP2;P2;SDS_P1;SDS_P2;PMS_P1;PMS_P2;Temp;Humidity;BMP_temperature;BMP_pressure;BME280_temperature;BME280_humidity;BME280_pressure;Samples;Min_cycle;Max_cycle;Signal;HPM_P1;HPM_P2
2023/04/27 00:02:24;;;;;;;9.00;4.00;;;;;;;3.54;100.00;101947.56;5030222;28;20053;-58
2023/04/27 00:04:52;;;;;;;11.13;4.80;;;;;;;3.56;100.00;101944.94;5028051;28;20041;-58
2023/04/27 00:07:21;;;;;;;9.85;5.20;;;;;;;3.52;100.00;101940.69;5021806;28;20038;-59
2023/04/27 00:09:50;;;;;;;9.88;4.45;;;;;;;3.41;100.00;101943.47;5028458;28;20626;-59
2023/04/27 00:12:18;;;;;;;9.00;4.32;;;;;;;3.51;100.00;101947.59;5029897;28;20050;-58
2023/04/27 00:14:48;;;;;;;10.43;4.40;;;;;;;3.45;100.00;101945.13;5030173;28;21167;-59
2023/04/27 00:17:16;;;;;;;7.40;4.15;;;;;;;3.38;100.00;101954.78;5030754;28;20508;-59
2023/04/27 00:19:46;;;;;;;8.20;4.45;;;;;;;3.32;100.00;101954.03;5050662;28;20048;-58
2023/04/27 00:22:14;;;;;;;10.07;5.10;;;;;;;3.24;100.00;101961.94;5052896;28;20044;-58
2023/04/27 00:24:45;;;;;;;9.40;4.50;;;;;;;3.27;100.00;101961.03;5052793;28;20052;-58
2023/04/27 00:27:14;;;;;;;10.60;3.90;;;;;;;3.20;100.00;101960.28;5031749;28;20050;-59
2023/04/27 00:29:42;;;;;;;9.23;4.18;;;;;;;3.14;100.00;101963.84;5028548;28;20080;-59
2023/04/27 00:32:12;;;;;;;10.85;3.88;;;;;;;3.20;100.00;101966.38;5027207;28;20096;-58
2023/04/27 00:34:40;;;;;;;8.55;3.90;;;;;;;3.16;100.00;101967.28;5031205;28;20982;-58
2023/04/27 00:37:11;;;;;;;7.60;3.53;;;;;;;3.11;100.00;101963.03;5031537;28;20714;-59
2023/04/27 00:39:39;;;;;;;9.35;3.53;;;;;;;3.04;100.00;101963.13;5032536;28;20095;-59
2023/04/27 00:42:10;;;;;;;6.82;3.67;;;;;;;3.03;100.00;101965.78;5031388;28;20457;-58
2023/04/27 00:44:38;;;;;;;10.02;3.80;;;;;;;2.99;100.00;101962.34;5028818;28;20037;-58
2023/04/27 00:47:07;;;;;;;7.80;3.78;;;;;;;2.91;100.00;101966.81;5031346;28;20073;-58
2023/04/27 00:49:36;;;;;;;7.00;3.30;;;;;;;2.96;100.00;101959.81;5032371;28;20052;-57
2023/04/27 00:52:05;;;;;;;10.02;3.83;;;;;;;2.89;100.00;101958.19;5032331;28;20080;-58
2023/04/27 00:54:33;;;;;;;8.07;3.75;;;;;;;2.92;100.00;101955.53;5027398;28;20512;-58
2023/04/27 00:57:02;;;;;;;9.55;3.58;;;;;;;2.87;100.00;101953.00;5028756;28;20054;-59
2023/04/27 00:59:31;;;;;;;10.35;3.63;;;;;;;2.85;100.00;101956.50;5028009;28;20164;-59
2023/04/27 01:01:59;;;;;;;8.52;3.75;;;;;;;2.80;100.00;101958.31;5028902;28;20404;-58
2023/04/27 01:04:28;;;;;;;11.38;3.63;;;;;;;2.82;100.00;101956.53;5031273;28;20053;-58
2023/04/27 01:06:58;;;;;;;9.18;3.90;;;;;;;2.77;100.00;101966.13;5028028;28;20045;-58
2023/04/27 01:09:26;;;;;;;8.18;3.88;;;;;;;2.72;100.00;101974.00;5029419;28;20061;-58
2023/04/27 01:11:57;;;;;;;8.45;4.25;;;;;;;2.72;100.00;101971.41;5019912;28;20046;-58
2023/04/27 01:14:25;;;;;;;9.82;4.30;;;;;;;2.63;100.00;101974.13;5012707;28;20151;-58
2023/04/27 01:16:53;;;;;;;8.45;3.92;;;;;;;2.56;100.00;101960.38;5015544;28;20580;-58
2023/04/27 01:19:21;;;;;;;10.20;4.07;;;;;;;2.57;100.00;101964.69;5009198;28;20054;-58
2023/04/27 01:21:49;;;;;;;11.65;3.95;;;;;;;2.49;100.00;101963.94;5008236;28;21021;-59
2023/04/27 01:24:19;;;;;;;7.20;3.53;;;;;;;2.47;100.00;101958.78;5022180;28;20395;-59
2023/04/27 01:26:48;;;;;;;8.00;3.60;;;;;;;2.39;100.00;101959.72;5008818;28;20121;-59
2023/04/27 01:29:16;;;;;;;9.45;4.07;;;;;;;2.45;100.00;101952.72;5010750;28;20105;-59
2023/04/27 01:31:45;;;;;;;10.32;4.05;;;;;;;2.40;100.00;101957.16;5012545;28;20790;-59
2023/04/27 01:34:13;;;;;;;9.23;3.90;;;;;;;2.42;100.00;101951.94;5012489;28;20596;-57
2023/04/27 01:36:41;;;;;;;9.45;3.90;;;;;;;2.42;100.00;101955.38;5017132;28;20046;-58
2023/04/27 01:39:09;;;;;;;9.90;4.15;;;;;;;2.32;100.00;101958.97;5013367;28;20421;-58
2023/04/27 01:41:39;;;;;;;8.40;4.57;;;;;;;2.19;100.00;101964.28;5015067;28;20042;-58
2023/04/27 01:44:07;;;;;;;7.78;3.70;;;;;;;2.15;100.00;101959.19;5020120;28;20116;-58
2023/04/27 01:46:35;;;;;;;9.82;3.78;;;;;;;2.11;100.00;101966.13;5012927;28;20057;-58
2023/04/27 01:49:03;;;;;;;9.65;4.35;;;;;;;2.17;100.00;101957.44;5018098;28;20041;-58
2023/04/27 01:51:32;;;;;;;8.68;4.03;;;;;;;2.10;100.00;101960.97;5016332;28;20045;-58
2023/04/27 01:54:00;;;;;;;9.02;3.85;;;;;;;2.05;100.00;101957.59;5013167;28;20080;-58
2023/04/27 01:56:28;;;;;;;6.80;3.45;;;;;;;2.09;100.00;101959.25;5012754;28;20050;-59
2023/04/27 01:58:57;;;;;;;10.52;3.80;;;;;;;2.09;100.00;101954.94;5014760;28;20388;-58
2023/04/27 02:01:25;;;;;;;9.18;4.13;;;;;;;2.06;100.00;101954.09;5023476;28;20057;-58
2023/04/27 02:03:53;;;;;;;7.35;3.33;;;;;;;2.00;100.00;101958.50;5014732;28;20093;-60
2023/04/27 02:06:22;;;;;;;6.72;3.38;;;;;;;2.11;100.00;101960.09;5012032;28;20049;-59
2023/04/27 02:08:50;;;;;;;8.88;4.03;;;;;;;2.09;100.00;101956.66;5019907;28;20053;-59
2023/04/27 02:11:18;;;;;;;7.50;3.45;;;;;;;2.03;100.00;101950.66;5020424;28;20065;-59
2023/04/27 02:13:47;;;;;;;7.60;3.55;;;;;;;1.99;100.00;101953.31;5017925;28;20058;-60
2023/04/27 02:16:17;;;;;;;6.93;3.55;;;;;;;1.96;100.00;101945.56;5016432;28;20469;-59
2023/04/27 02:18:45;;;;;;;8.68;4.20;;;;;;;1.92;100.00;101941.28;5015311;28;20513;-59
2023/04/27 02:21:13;;;;;;;9.15;4.20;;;;;;;1.96;100.00;101945.56;5023099;28;20048;-58
2023/04/27 02:23:41;;;;;;;9.15;3.95;;;;;;;1.85;100.00;101946.56;5014111;28;20060;-59
2023/04/27 02:26:16;;;;;;;8.93;4.07;;;;;;;1.72;100.00;101942.38;5021146;28;20418;-59
2023/04/27 02:28:45;;;;;;;7.03;3.35;;;;;;;1.74;100.00;101939.75;5015863;28;20054;-59
2023/04/27 02:31:17;;;;;;;9.70;3.72;;;;;;;1.75;100.00;101941.47;5013108;28;20038;-58
2023/04/27 02:33:45;;;;;;;10.43;4.45;;;;;;;1.77;100.00;101950.97;5024679;28;20058;-58
2023/04/27 02:36:13;;;;;;;8.13;3.83;;;;;;;1.75;100.00;101944.94;5013381;28;20688;-58
2023/04/27 02:38:41;;;;;;;7.50;3.88;;;;;;;1.77;100.00;101942.31;5011566;28;20054;-58
2023/04/27 02:41:09;;;;;;;7.63;4.03;;;;;;;1.71;100.00;101943.25;5022704;28;20435;-58
2023/04/27 02:43:37;;;;;;;6.97;3.53;;;;;;;1.65;100.00;101949.34;5031098;28;20049;-58
2023/04/27 02:46:06;;;;;;;9.63;4.30;;;;;;;1.64;100.00;101945.03;5031779;28;20053;-58
2023/04/27 02:48:36;;;;;;;12.43;4.22;;;;;;;1.61;100.00;101944.19;5031303;28;20053;-58
2023/04/27 02:51:04;;;;;;;8.90;3.85;;;;;;;1.52;100.00;101945.16;5035984;28;20695;-59
2023/04/27 02:53:32;;;;;;;8.00;3.78;;;;;;;1.48;100.00;101948.66;5036538;28;20107;-58
2023/04/27 02:56:00;;;;;;;9.52;4.15;;;;;;;1.53;100.00;101946.88;5030902;28;20541;-60
2023/04/27 02:58:29;;;;;;;8.32;3.60;;;;;;;1.56;100.00;101943.41;5030859;28;20370;-59
2023/04/27 03:00:57;;;;;;;7.25;3.88;;;;;;;1.59;100.00;101938.19;5032295;28;20064;-58
2023/04/27 03:03:25;;;;;;;9.25;4.80;;;;;;;1.47;100.00;101941.75;5030967;28;20075;-59
2023/04/27 03:05:55;;;;;;;8.77;4.50;;;;;;;1.49;100.00;101942.59;5030130;28;20048;-58
2023/04/27 03:08:23;;;;;;;7.85;3.63;;;;;;;1.45;100.00;101938.31;5033217;28;20052;-58
2023/04/27 03:10:51;;;;;;;11.13;3.95;;;;;;;1.33;100.00;101936.69;5019777;28;20409;-58
2023/04/27 03:13:21;;;;;;;9.93;3.65;;;;;;;1.36;100.00;101934.06;5012853;28;20057;-58
2023/04/27 03:15:49;;;;;;;9.00;3.97;;;;;;;1.38;100.00;101937.53;5010706;28;20176;-58
2023/04/27 03:18:17;;;;;;;8.93;4.55;;;;;;;1.30;100.00;101939.31;5013336;28;20073;-57
2023/04/27 03:20:45;;;;;;;7.43;4.03;;;;;;;1.32;100.00;101955.72;5010552;28;20053;-58
2023/04/27 03:23:14;;;;;;;9.93;3.95;;;;;;;1.30;100.00;101949.69;5030287;28;20077;-58
2023/04/27 03:25:43;;;;;;;8.77;3.88;;;;;;;1.32;100.00;101945.34;5016896;28;20041;-58
2023/04/27 03:28:11;;;;;;;11.10;4.25;;;;;;;1.25;100.00;101947.13;5011321;28;20041;-58
2023/04/27 03:30:40;;;;;;;8.70;4.35;;;;;;;1.23;100.00;101948.88;5013618;28;20049;-58
2023/04/27 03:33:08;;;;;;;12.93;4.68;;;;;;;1.24;100.00;101953.19;5011616;28;20058;-58
2023/04/27 03:35:36;;;;;;;9.93;4.22;;;;;;;1.10;100.00;101953.28;5010980;28;20057;-58
2023/04/27 03:38:04;;;;;;;8.73;4.57;;;;;;;1.13;100.00;101955.00;5010176;28;20069;-59
2023/04/27 03:40:34;;;;;;;9.88;4.30;;;;;;;1.06;100.00;101949.00;5014140;28;20511;-58
2023/04/27 03:43:02;;;;;;;9.23;4.53;;;;;;;1.05;100.00;101957.69;5020568;28;20125;-59
2023/04/27 03:45:30;;;;;;;10.65;4.63;;;;;;;0.98;100.00;101951.69;5013013;28;20660;-58
2023/04/27 03:47:58;;;;;;;9.15;3.97;;;;;;;0.98;100.00;101954.25;5011286;28;20076;-58
2023/04/27 03:50:26;;;;;;;9.50;4.60;;;;;;;1.01;100.00;101961.16;5008165;28;20493;-59
2023/04/27 03:52:57;;;;;;;9.43;5.00;;;;;;;0.92;100.00;101963.81;5025541;28;20368;-59
2023/04/27 03:55:25;;;;;;;10.43;5.75;;;;;;;0.94;100.00;101962.06;5018516;28;20056;-60
2023/04/27 03:57:55;;;;;;;13.38;6.00;;;;;;;0.94;100.00;101964.63;5012540;28;20404;-59
2023/04/27 04:00:23;;;;;;;11.73;5.93;;;;;;;0.90;100.00;101969.00;5023525;28;20084;-59
2023/04/27 04:02:52;;;;;;;12.93;6.18;;;;;;;0.91;100.00;101978.47;5029228;28;20049;-59
2023/04/27 04:05:20;;;;;;;13.05;5.97;;;;;;;0.96;100.00;101975.88;5028113;28;20719;-58
2023/04/27 04:07:48;;;;;;;10.80;5.95;;;;;;;0.91;100.00;101978.47;5028372;28;20397;-59
2023/04/27 04:10:16;;;;;;;10.73;5.45;;;;;;;0.98;100.00;101976.69;5018741;28;20531;-59
2023/04/27 04:12:44;;;;;;;11.02;5.25;;;;;;;1.00;100.00;101978.41;5024198;28;20049;-59
2023/04/27 04:15:15;;;;;;;11.18;5.88;;;;;;;1.01;100.00;101971.53;5031215;28;20045;-59
2023/04/27 04:17:43;;;;;;;11.25;5.88;;;;;;;0.96;100.00;101976.72;5020922;28;20061;-58
2023/04/27 04:20:12;;;;;;;12.25;5.88;;;;;;;0.94;100.00;101977.59;5022306;28;20041;-58
2023/04/27 04:22:40;;;;;;;11.68;5.85;;;;;;;0.95;100.00;101976.72;5032833;28;20191;-58
2023/04/27 04:25:08;;;;;;;11.02;5.85;;;;;;;0.93;100.00;101974.16;5031276;28;20053;-58
2023/04/27 04:27:36;;;;;;;13.95;6.13;;;;;;;0.89;100.00;101977.63;5029285;28;20049;-59
2023/04/27 04:30:06;;;;;;;12.27;5.78;;;;;;;0.89;100.00;101971.59;5027193;28;20045;-58
2023/04/27 04:32:37;;;;;;;13.00;6.78;;;;;;;0.87;100.00;101961.22;5028844;28;20044;-59
2023/04/27 04:35:06;;;;;;;16.50;7.20;;;;;;;0.87;100.00;101965.56;5030413;28;20053;-59
2023/04/27 04:37:35;;;;;;;13.90;7.03;;;;;;;0.80;100.00;101968.19;5028365;28;20132;-59
2023/04/27 04:40:09;;;;;;;16.00;7.63;;;;;;;0.78;100.00;101972.53;5028946;28;20049;-58
2023/04/27 04:42:37;;;;;;;16.20;6.82;;;;;;;0.77;100.00;101965.63;5028860;28;20516;-58
2023/04/27 04:45:07;;;;;;;12.90;6.63;;;;;;;0.75;100.00;101964.78;5028177;28;20080;-59
2023/04/27 04:47:35;;;;;;;16.38;7.85;;;;;;;0.86;100.00;101974.19;5028962;28;20052;-59
2023/04/27 04:50:06;;;;;;;16.92;7.28;;;;;;;0.91;100.00;101981.06;5028249;28;20049;-59
2023/04/27 04:52:34;;;;;;;15.60;7.90;;;;;;;0.88;100.00;101982.84;5032752;28;20493;-60
2023/04/27 04:55:02;;;;;;;14.27;7.97;;;;;;;0.86;100.00;101980.25;5029089;28;20139;-58
2023/04/27 04:57:30;;;;;;;19.80;8.65;;;;;;;0.86;100.00;101988.03;5027941;28;20520;-59
2023/04/27 04:59:58;;;;;;;17.35;8.57;;;;;;;0.86;100.00;101989.75;5027861;28;20057;-59
2023/04/27 05:02:27;;;;;;;17.58;7.85;;;;;;;0.86;100.00;101990.63;5030007;28;20064;-59
2023/04/27 05:04:57;;;;;;;16.55;8.02;;;;;;;0.94;100.00;101995.72;5027280;28;20515;-59
2023/04/27 05:07:29;;;;;;;15.95;7.63;;;;;;;0.93;100.00;102000.06;5028560;28;20493;-59
2023/04/27 05:09:57;;;;;;;16.23;8.25;;;;;;;0.97;100.00;101995.72;5032283;28;20060;-59
2023/04/27 05:12:26;;;;;;;17.05;8.65;;;;;;;1.00;100.00;101999.13;5028620;28;20095;-60
2023/04/27 05:14:54;;;;;;;15.27;8.85;;;;;;;0.95;100.00;101992.28;5027862;28;20480;-58
2023/04/27 05:17:22;;;;;;;15.38;7.95;;;;;;;0.97;100.00;101991.41;5028481;28;20053;-58
2023/04/27 05:19:50;;;;;;;17.48;9.25;;;;;;;0.95;100.00;101989.69;5026997;28;20757;-58
2023/04/27 05:22:18;;;;;;;17.15;8.75;;;;;;;0.96;100.00;101989.66;5028022;28;20049;-58
2023/04/27 05:24:47;;;;;;;17.10;9.13;;;;;;;0.99;100.00;101984.47;5032250;28;20140;-58
2023/04/27 05:27:15;;;;;;;17.17;8.75;;;;;;;1.06;100.00;101982.69;5034162;28;20056;-58
2023/04/27 05:29:44;;;;;;;17.92;8.82;;;;;;;1.07;100.00;101987.00;5032329;28;20447;-58
2023/04/27 05:32:15;;;;;;;16.17;8.25;;;;;;;1.12;100.00;101992.19;5031807;28;20037;-59
2023/04/27 05:34:43;;;;;;;18.15;8.80;;;;;;;1.13;100.00;101991.28;5033950;28;20053;-59
2023/04/27 05:37:14;;;;;;;15.30;8.45;;;;;;;1.16;100.00;101989.53;5031774;28;20099;-58
2023/04/27 05:39:45;;;;;;;17.73;8.45;;;;;;;1.25;100.00;101990.34;5032334;28;20056;-58
2023/04/27 05:42:14;;;;;;;15.00;8.15;;;;;;;1.29;100.00;101989.44;5032399;28;20131;-58
2023/04/27 05:44:42;;;;;;;16.90;8.77;;;;;;;1.36;100.00;101985.91;5030097;28;20089;-58
2023/04/27 05:47:11;;;;;;;15.38;7.60;;;;;;;1.40;100.00;101989.34;5031706;28;20149;-58
2023/04/27 05:49:39;;;;;;;13.95;7.25;;;;;;;1.46;100.00;101990.16;5033331;28;20068;-59
2023/04/27 05:52:07;;;;;;;14.15;7.95;;;;;;;1.51;100.00;101993.56;5035597;28;20045;-60
2023/04/27 05:54:35;;;;;;;15.05;8.05;;;;;;;1.71;100.00;102002.06;5035714;28;20424;-51
2023/04/27 05:57:03;;;;;;;15.57;7.13;;;;;;;1.80;100.00;102001.94;5035611;28;20073;-54
2023/04/27 05:59:32;;;;;;;12.85;7.03;;;;;;;1.89;100.00;102001.00;5032701;28;20053;-52
2023/04/27 06:02:00;;;;;;;17.77;7.88;;;;;;;1.91;100.00;102001.81;5030549;28;20053;-52
2023/04/27 06:04:31;;;;;;;14.13;7.18;;;;;;;2.01;100.00;102003.47;5030140;28;20520;-50
2023/04/27 06:07:00;;;;;;;15.13;7.38;;;;;;;2.08;100.00;102010.28;5030685;28;20124;-52
2023/04/27 06:09:28;;;;;;;13.95;7.70;;;;;;;2.18;100.00;102014.53;5031988;28;20107;-53
2023/04/27 06:11:57;;;;;;;16.60;7.30;;;;;;;2.28;100.00;102006.63;5031748;28;20452;-53
2023/04/27 06:14:25;;;;;;;12.95;6.72;;;;;;;2.38;100.00;102003.03;5031244;28;20057;-54
2023/04/27 06:16:54;;;;;;;14.52;6.53;;;;;;;2.52;100.00;101998.53;5030154;28;20050;-50
2023/04/27 06:19:23;;;;;;;16.40;7.35;;;;;;;2.72;100.00;102001.75;5033877;28;20042;-50
2023/04/27 06:21:51;;;;;;;13.98;6.40;;;;;;;2.87;100.00;102004.13;5030593;28;20048;-51
2023/04/27 06:24:19;;;;;;;12.98;6.00;;;;;;;3.03;100.00;102007.34;5031854;28;20046;-53
2023/04/27 06:26:47;;;;;;;12.73;6.43;;;;;;;3.14;100.00;102005.44;5031138;28;20049;-53
2023/04/27 06:29:15;;;;;;;15.23;6.40;;;;;;;3.24;100.00;101995.75;5031592;28;20042;-51
2023/04/27 06:31:43;;;;;;;12.82;6.35;;;;;;;3.36;100.00;101999.91;5031288;28;20083;-52
2023/04/27 06:34:13;;;;;;;14.52;6.43;;;;;;;3.51;100.00;101999.63;5029857;28;20361;-52
2023/04/27 06:36:41;;;;;;;11.65;5.68;;;;;;;3.73;100.00;101994.06;5035144;28;20081;-51
2023/04/27 06:39:09;;;;;;;11.48;5.63;;;;;;;3.84;100.00;101989.50;5032712;28;20116;-52
2023/04/27 06:41:40;;;;;;;13.43;6.57;;;;;;;4.06;100.00;101991.69;5030927;28;20053;-53
2023/04/27 06:44:08;;;;;;;14.27;6.30;;;;;;;4.19;100.00;101987.97;5030726;28;20068;-53
2023/04/27 06:46:36;;;;;;;9.73;4.60;;;;;;;4.54;100.00;101995.94;5030808;28;20049;-53
2023/04/27 06:49:06;;;;;;;12.82;4.32;;;;;;;4.76;100.00;101990.25;5029500;28;20049;-53
2023/04/27 06:51:35;;;;;;;9.82;4.40;;;;;;;5.03;100.00;101994.84;5030284;28;20064;-52
2023/04/27 06:54:04;;;;;;;8.35;4.10;;;;;;;5.18;100.00;101996.25;5030717;28;20088;-52
2023/04/27 06:56:32;;;;;;;8.43;3.72;;;;;;;5.46;100.00;102002.53;5033483;28;20497;-53
2023/04/27 06:59:00;;;;;;;11.30;4.13;;;;;;;5.65;100.00;102000.31;5033141;28;20531;-52
2023/04/27 07:01:28;;;;;;;9.90;3.63;;;;;;;5.80;100.00;101994.66;5030404;28;20115;-53
2023/04/27 07:03:57;;;;;;;8.13;3.08;;;;;;;5.83;100.00;101991.97;5032041;28;20042;-52
2023/04/27 07:06:25;;;;;;;6.72;3.35;;;;;;;5.93;100.00;101998.66;5034158;28;20038;-53
2023/04/27 07:08:55;;;;;;;7.95;3.30;;;;;;;6.23;100.00;101992.66;5031204;28;20057;-59
2023/04/27 07:11:23;;;;;;;7.25;2.97;;;;;;;6.28;100.00;102000.38;5030882;28;20061;-59
2023/04/27 07:13:51;;;;;;;9.18;3.28;;;;;;;6.39;100.00;102003.53;5032917;28;20053;-59
2023/04/27 07:16:22;;;;;;;10.68;3.22;;;;;;;6.48;100.00;102003.25;5030441;28;20115;-59
2023/04/27 07:18:50;;;;;;;7.32;3.15;;;;;;;6.60;100.00;102004.66;5029777;28;20141;-59
2023/04/27 07:21:18;;;;;;;9.48;2.90;;;;;;;6.71;100.00;102005.19;5029339;28;20077;-59
2023/04/27 07:23:46;;;;;;;9.13;3.05;;;;;;;6.84;100.00;102010.88;5029743;28;20080;-59
2023/04/27 07:26:20;;;;;;;11.93;3.60;;;;;;;7.08;100.00;102003.19;5034246;28;20550;-59
2023/04/27 07:28:51;;;;;;;11.68;3.08;;;;;;;7.18;100.00;102014.22;5032650;28;20099;-59
2023/04/27 07:31:19;;;;;;;7.70;2.88;;;;;;;7.38;100.00;102010.94;5034154;28;20107;-59
2023/04/27 07:33:51;;;;;;;6.03;2.65;;;;;;;7.60;100.00;102011.91;5030401;28;20077;-59
2023/04/27 07:36:19;;;;;;;8.55;3.40;;;;;;;7.81;100.00;102019.94;5027438;28;20045;-59
2023/04/27 07:38:47;;;;;;;6.88;2.10;;;;;;;8.00;100.00;102014.06;5033160;28;20409;-59
2023/04/27 07:41:16;;;;;;;13.32;2.30;;;;;;;8.08;100.00;102019.88;5031787;28;20049;-59
2023/04/27 07:43:47;;;;;;;5.78;2.30;;;;;;;8.20;100.00;102022.06;5031793;28;20084;-58
2023/04/27 07:46:15;;;;;;;16.90;2.60;;;;;;;8.33;100.00;102021.59;5032664;28;20123;-59
2023/04/27 07:48:43;;;;;;;5.43;2.10;;;;;;;8.52;100.00;102017.44;5029785;28;20041;-59
2023/04/27 07:51:14;;;;;;;7.47;2.58;;;;;;;8.62;100.00;102008.28;5028007;28;20488;-59
2023/04/27 07:53:42;;;;;;;7.13;2.40;;;;;;;8.76;100.00;102009.53;5029596;28;20049;-59
2023/04/27 07:56:13;;;;;;;11.82;2.08;;;;;;;8.96;100.00;102006.13;5031771;28;20054;-60
2023/04/27 07:58:41;;;;;;;8.82;2.83;;;;;;;9.11;100.00;102010.75;5033058;28;20050;-59
2023/04/27 08:01:11;;;;;;;24.27;2.95;;;;;;;9.11;99.01;102009.91;5032817;28;20061;-59
2023/04/27 08:03:39;;;;;;;6.88;2.00;;;;;;;9.22;90.92;102004.22;5032415;28;20060;-59
2023/04/27 08:06:07;;;;;;;5.05;2.10;;;;;;;9.37;91.86;102002.75;5027440;28;20131;-59
2023/04/27 08:08:36;;;;;;;6.75;2.25;;;;;;;9.46;93.29;101999.72;5029197;28;20135;-60
2023/04/27 08:11:04;;;;;;;5.65;2.55;;;;;;;9.64;91.94;102004.19;5029187;28;20111;-60
2023/04/27 08:13:35;;;;;;;5.95;2.08;;;;;;;9.78;88.04;102000.97;5032096;28;20045;-59
2023/04/27 08:16:03;;;;;;;8.98;2.13;;;;;;;10.00;84.54;102005.28;5028337;28;20049;-59
2023/04/27 08:18:33;;;;;;;5.05;2.10;;;;;;;10.03;80.73;102009.56;5030274;28;20136;-59
2023/04/27 08:21:01;;;;;;;4.13;1.98;;;;;;;10.33;84.69;101999.44;5033138;28;20128;-59
2023/04/27 08:23:30;;;;;;;6.50;2.17;;;;;;;10.37;80.29;102001.03;5032722;28;20044;-59
2023/04/27 08:25:58;;;;;;;6.18;1.92;;;;;;;10.54;78.96;101999.38;5032710;28;20045;-60
2023/04/27 08:28:29;;;;;;;6.65;2.13;;;;;;;10.56;74.97;101998.41;5032716;28;20116;-61
2023/04/27 08:30:57;;;;;;;3.58;1.92;;;;;;;10.75;75.44;102002.81;5031537;28;20053;-60
2023/04/27 08:33:25;;;;;;;5.68;2.10;;;;;;;11.02;74.91;101997.16;5027645;28;20413;-57
2023/04/27 08:35:55;;;;;;;8.77;2.33;;;;;;;11.13;74.57;101997.47;5027130;28;20528;-55
2023/04/27 08:38:23;;;;;;;7.32;2.47;;;;;;;11.21;75.61;101992.69;5029080;28;20045;-56
2023/04/27 08:40:52;;;;;;;5.57;2.00;;;;;;;11.26;72.12;101993.31;5031597;28;20041;-55
2023/04/27 08:43:20;;;;;;;9.63;2.38;;;;;;;11.43;68.29;102004.78;5032349;28;20100;-60
2023/04/27 08:45:50;;;;;;;7.25;2.10;;;;;;;11.50;68.00;102011.44;5032439;28;20041;-60
2023/04/27 08:48:20;;;;;;;5.10;2.30;;;;;;;11.57;67.57;101996.16;5030801;28;20053;-60
2023/04/27 08:50:50;;;;;;;4.03;1.83;;;;;;;11.53;65.50;101994.63;5026106;28;20552;-59
2023/04/27 08:53:21;;;;;;;6.82;2.10;;;;;;;11.66;63.70;101993.91;5031758;28;20507;-59
2023/04/27 08:55:49;;;;;;;7.22;2.05;;;;;;;11.72;65.26;101978.72;5026632;28;20068;-59
2023/04/27 08:58:17;;;;;;;4.75;2.22;;;;;;;11.88;65.89;101990.16;5027411;28;20121;-59
2023/04/27 09:00:46;;;;;;;5.60;2.13;;;;;;;11.92;65.58;101986.44;5025524;28;20057;-60
2023/04/27 09:03:23;;;;;;;4.53;2.20;;;;;;;11.94;61.81;101984.63;5028558;28;20049;-59
2023/04/27 09:05:51;;;;;;;5.13;2.40;;;;;;;12.08;64.16;101978.59;5031474;28;20374;-60
2023/04/27 09:08:44;;;;;;;6.35;2.53;;;;;;;12.07;62.89;101981.31;5032226;28;20080;-59
2023/04/27 09:11:13;;;;;;;8.85;2.53;;;;;;;12.31;64.12;101977.34;5032126;28;20603;-60
2023/04/27 09:13:44;;;;;;;5.85;2.00;;;;;;;12.49;62.63;101982.56;5032146;28;20095;-60
2023/04/27 09:16:13;;;;;;;5.07;2.50;;;;;;;12.68;57.98;101975.31;5031812;28;20046;-60
2023/04/27 09:18:43;;;;;;;4.38;2.10;;;;;;;12.79;58.47;101977.34;5028123;28;20566;-61
2023/04/27 09:21:11;;;;;;;5.75;2.17;;;;;;;13.13;59.60;101985.13;5026052;28;20863;-60
2023/04/27 09:23:40;;;;;;;6.97;2.30;;;;;;;13.04;56.79;101983.03;5029580;28;20052;-59
2023/04/27 09:26:10;;;;;;;5.55;2.00;;;;;;;12.82;58.46;101978.97;5032038;28;20045;-60
2023/04/27 09:28:40;;;;;;;5.43;2.00;;;;;;;13.13;60.10;101979.84;5029025;28;20052;-60
2023/04/27 09:31:09;;;;;;;8.38;2.40;;;;;;;13.25;56.98;101978.28;5028263;28;20506;-59
2023/04/27 09:33:37;;;;;;;6.07;2.42;;;;;;;13.36;55.06;101965.31;5029364;28;20057;-61
2023/04/27 09:36:06;;;;;;;8.00;2.50;;;;;;;13.41;54.17;101962.41;5029381;28;20041;-60
2023/04/27 09:38:34;;;;;;;4.90;2.20;;;;;;;13.57;55.68;101959.72;5028412;28;20049;-61
2023/04/27 09:41:03;;;;;;;5.47;2.15;;;;;;;13.73;53.27;101957.84;5028809;28;20077;-62
2023/04/27 09:43:33;;;;;;;7.35;2.13;;;;;;;13.86;51.09;101950.88;5028675;28;20046;-61
2023/04/27 09:46:04;;;;;;;5.78;2.28;;;;;;;14.22;51.34;101947.78;5027779;28;20080;-60
2023/04/27 09:48:32;;;;;;;4.35;2.38;;;;;;;14.27;50.27;101945.72;5029594;28;20076;-60
2023/04/27 09:51:00;;;;;;;4.35;2.38;;;;;;;14.30;51.32;101954.31;5028922;28;20103;-61
2023/04/27 09:53:33;;;;;;;4.68;2.40;;;;;;;14.50;50.40;101949.53;5027698;28;20128;-60
2023/04/27 09:56:16;;;;;;;3.97;2.30;;;;;;;14.68;49.51;101945.75;5027976;28;20128;-59
2023/04/27 09:59:06;;;;;;;5.63;2.53;;;;;;;14.85;48.18;101944.63;5028236;28;20382;-57
2023/04/27 10:01:41;;;;;;;5.10;2.70;;;;;;;14.83;49.68;101943.03;5027580;28;20560;-57
2023/04/27 10:04:26;;;;;;;8.23;2.95;;;;;;;14.92;48.79;101944.25;5030661;28;20096;-56
2023/04/27 10:07:00;;;;;;;6.28;2.58;;;;;;;14.88;48.48;101946.22;5031765;28;20534;-57
2023/04/27 10:09:34;;;;;;;5.15;2.50;;;;;;;14.65;49.98;101935.34;5033684;28;20045;-57
2023/04/27 10:12:15;;;;;;;5.95;2.70;;;;;;;14.82;48.23;101938.66;5032701;28;20049;-56
2023/04/27 10:14:53;;;;;;;6.00;3.03;;;;;;;14.42;48.43;101941.25;5031308;28;20048;-56
2023/04/27 10:17:26;;;;;;;4.82;2.70;;;;;;;15.08;52.60;101938.75;5035279;28;20104;-57
2023/04/27 10:19:58;;;;;;;5.47;2.67;;;;;;;14.61;46.72;101938.25;5035180;28;20049;-57
2023/04/27 10:22:39;;;;;;;6.57;3.10;;;;;;;14.82;47.34;101926.31;5035139;28;20511;-56
2023/04/27 10:25:17;;;;;;;7.30;3.30;;;;;;;15.30;48.78;101935.50;5034985;28;20133;-56
2023/04/27 10:27:51;;;;;;;8.25;2.70;;;;;;;15.32;46.29;101936.25;5034958;28;20049;-56
2023/04/27 10:30:21;;;;;;;7.03;2.95;;;;;;;15.17;45.56;101935.47;5034980;28;20052;-55
2023/04/27 10:32:51;;;;;;;5.70;3.00;;;;;;;15.31;46.33;101947.78;5035166;28;20465;-56
2023/04/27 10:35:20;;;;;;;6.40;2.90;;;;;;;15.49;45.89;101938.59;5030216;28;20109;-55
2023/04/27 10:37:48;;;;;;;7.38;3.17;;;;;;;15.88;44.52;101939.47;5030679;28;20046;-54
2023/04/27 10:40:19;;;;;;;6.20;3.00;;;;;;;16.16;43.49;101934.84;5031874;28;20068;-56
2023/04/27 10:42:48;;;;;;;7.68;3.15;;;;;;;16.62;45.63;101941.28;5031280;28;20354;-56
2023/04/27 10:45:28;;;;;;;10.77;3.08;;;;;;;16.56;41.31;101933.75;5031157;28;20050;-56
2023/04/27 10:48:00;;;;;;;7.45;3.00;;;;;;;16.59;43.33;101935.34;5030527;28;20080;-55
2023/04/27 10:50:30;;;;;;;11.32;3.25;;;;;;;16.69;42.05;101925.75;5027804;28;20061;-57
2023/04/27 10:53:04;;;;;;;6.70;2.72;;;;;;;16.57;42.46;101924.84;5030098;28;20046;-57
2023/04/27 10:55:33;;;;;;;7.15;3.20;;;;;;;16.52;40.62;101925.19;5032177;28;20056;-56
2023/04/27 10:58:03;;;;;;;12.38;3.10;;;;;;;16.95;41.90;101921.16;5031171;28;20050;-56
2023/04/27 11:00:34;;;;;;;6.57;3.10;;;;;;;17.03;41.44;101928.56;5030377;28;20056;-56
2023/04/27 11:03:14;;;;;;;11.00;3.70;;;;;;;16.87;39.10;101931.50;5032990;28;20048;-56
2023/04/27 11:05:47;;;;;;;6.28;3.28;;;;;;;17.32;40.51;101922.84;5034069;28;20511;-56
2023/04/27 11:08:17;;;;;;;6.75;3.10;;;;;;;17.64;42.08;101916.81;5034257;28;20050;-56
2023/04/27 11:10:48;;;;;;;5.75;3.30;;;;;;;17.51;39.43;101923.09;5034188;28;20468;-56
2023/04/27 11:13:18;;;;;;;6.30;3.00;;;;;;;17.43;40.37;101922.84;5031275;28;20507;-56
2023/04/27 11:15:50;;;;;;;6.20;3.28;;;;;;;17.81;39.02;101920.84;5031135;28;20041;-56
2023/04/27 11:18:19;;;;;;;6.60;3.35;;;;;;;18.08;39.69;101916.00;5034120;28;20453;-56
2023/04/27 11:20:50;;;;;;;7.90;3.40;;;;;;;18.06;39.08;101901.97;5029794;28;20586;-56
2023/04/27 11:23:25;;;;;;;6.50;3.35;;;;;;;18.08;38.17;101909.84;5029187;28;20099;-56
2023/04/27 11:25:54;;;;;;;6.88;3.20;;;;;;;17.73;37.35;101903.63;5030749;28;20651;-56
2023/04/27 11:28:24;;;;;;;6.93;3.72;;;;;;;18.35;38.09;101900.56;5030612;28;20436;-56
2023/04/27 11:30:57;;;;;;;8.48;3.75;;;;;;;18.40;37.26;101896.53;5030010;28;20128;-56
2023/04/27 11:33:25;;;;;;;;;;;;;;;18.36;37.18;101897.75;5030805;28;20045;-57